Ottumwa Rgnl Information

FAA: OTM - ICAO: KOTM

Ottumwa Rgnl (Airport) Location

State Iowa
County Wapello
City Ottumwa
Ottumwa Rgnl (Airport) is 5 miles northwest of Ottumwa, IA.
Latitude 41-06-25.8528N
Longitude 092-26-49.4618W
Elevation 845ft

Ottumwa Rgnl METARs

METAR KOTM 191053Z AUTO 34003KT 10SM CLR 15/14 A2969 RMK AO2 SLP047 T01500139
Altimeter 29.69"
Temperature 15.0°C (59.0°F)
Wind 340° at 3KT
Clouds Skies are clear.
Visibility 10.0mi
Time observed: 2022-05-19T10:53:00Z

Ottumwa Rgnl (Airport) Details

Status Operational
Activation April 1944
Ownership Public
Usage Public
Chart CHICAGO
ATC on-site No
Beacon schedule sunset-sunrise
Beacon color clear green

Ottumwa Rgnl (Airport) Contacts

Owner CITY OF OTTUMWA
Owner address CITY HALL, OTTUMWA, IA 52501
Owner phone 641-683-0619
Manager N/A
Manager address N/A, N/A
Manager phone N/A

Ottumwa Rgnl Radio Frequencies

Ottumwa Rgnl (Airport) Radio Frequencies

UNICOM 123
Common traffic advisory frequency (CTAF) 123